Love Boat — OT3861 — position and weather

sailwx.info

Track history (hours):
 
Tides and Currents Weather Stations Pressure Air Temp Water Temp Dewpoint Dewpoint Depression Visibility Wind Speed Wind Dir Waves Ship Positions

Love Boat

Last reported at 2016-Apr-30 11:33 UTC. Time now 2016-May-04 06:02 UTC.
Position N 50°54' E 007°01'.

Length 110 m.

Type: Ship. MMSI: 205386190.

Date/timePositionNaut miles runAvg speedWind from/ knotsBaromVisibWave heightAir tempDewpointWater temp
2016-Apr-30 11:33N 50°54' E 007°01'4 3.9
2016-Apr-30 10:31N 50°57' E 006°59'13 3.3
2016-Apr-30 06:33N 51°09' E 006°49'3 3.0
2016-Apr-30 05:33N 51°11' E 006°46'3 2.6
2016-Apr-30 04:33N 51°13' E 006°45'3 2.7
2016-Apr-30 03:28N 51°16' E 006°42'4 3.9
2016-Apr-30 02:24N 51°20' E 006°43'2 2.1
2016-Apr-30 01:33N 51°21' E 006°40'0 0.0
2016-Apr-30 00:33N 51°21' E 006°40'0 0.0
2016-Apr-29 23:32N 51°21' E 006°40'0 0.0
2016-Apr-29 22:33N 51°21' E 006°40'1 0.9
2016-Apr-29 21:28N 51°22' E 006°39'5 4.0
2016-Apr-29 20:19N 51°25' E 006°44'4 4.1
2016-Apr-29 19:26N 51°28' E 006°42'3 3.3
2016-Apr-29 18:30N 51°31' E 006°42'4 4.0
2016-Apr-29 17:33N 51°35' E 006°39'4 3.8
2016-Apr-29 16:33N 51°37' E 006°35'4 3.6
2016-Apr-29 15:27N 51°40' E 006°30'55 4.9
2016-Apr-29 04:15N 51°49' E 005°02'5 7.0
2016-Apr-29 03:33N 51°49' E 004°54'8 7.0
2016-Apr-29 02:29N 51°49' E 004°42'6 6.3
2016-Apr-29 01:33N 51°50' E 004°33'7 6.8
2016-Apr-29 00:33N 51°51' E 004°22'6 5.7
2016-Apr-28 23:33N 51°54' E 004°14'3 3.1
2016-Apr-28 22:33N 51°56' E 004°11'0 0.0
2016-Apr-28 21:33N 51°56' E 004°11'2 1.8
2016-Apr-28 20:33N 51°57' E 004°09'0 0.0
2016-Apr-28 19:33N 51°57' E 004°09'0 0.0
2016-Apr-28 18:33N 51°57' E 004°09'0 0.0
2016-Apr-28 17:33N 51°57' E 004°09'0 0.0
2016-Apr-28 16:33N 51°57' E 004°09'0 0.1
2016-Apr-28 15:33N 51°57' E 004°09'0 0.0
2016-Apr-28 14:33N 51°57' E 004°09'0 0.0
2016-Apr-28 13:33N 51°57' E 004°09'0 0.0
2016-Apr-28 12:33N 51°57' E 004°09'0 0.0
2016-Apr-28 11:33N 51°57' E 004°09'1 0.8
2016-Apr-28 10:33N 51°58' E 004°08'5 4.6
2016-Apr-28 09:33N 51°54' E 004°12'7 7.2
2016-Apr-28 08:33N 51°51' E 004°22'13 6.3
2016-Apr-28 06:33N 51°43' E 004°39'7 7.1
2016-Apr-28 05:33N 51°43' E 004°50'0 0.0
2016-Apr-28 04:33N 51°43' E 004°50'0 0.0
2016-Apr-28 03:33N 51°43' E 004°50'0 0.0
2016-Apr-28 02:33N 51°43' E 004°50'0 0.0
2016-Apr-28 01:33N 51°43' E 004°50'0 0.0
2016-Apr-28 00:33N 51°43' E 004°50'0 0.0
2016-Apr-27 23:33N 51°43' E 004°50'0 0.0
2016-Apr-27 22:33N 51°43' E 004°50'0 0.0
2016-Apr-27 21:33N 51°43' E 004°50'0 0.0
2016-Apr-27 20:33N 51°43' E 004°50'0 0.0
2016-Apr-27 19:33N 51°43' E 004°50'  
2016-Apr-23 16:26N 51°40' E 006°29'6 7.0
2016-Apr-23 15:31N 51°35' E 006°36'7 6.9
2016-Apr-23 14:33N 51°31' E 006°43'8 7.2
2016-Apr-23 13:25N 51°23' E 006°43'8 6.3
2016-Apr-23 12:12N 51°15' E 006°45'4 6.2
2016-Apr-23 11:33N 51°11' E 006°44'16 6.9
2016-Apr-23 09:12N 50°58' E 006°60'5 7.1
2016-Apr-23 08:31N 50°54' E 007°02'7 6.9
2016-Apr-23 07:27N 50°46' E 007°04'  
Track history (hours):
 
Tides and Currents Weather Stations Pressure Air Temp Water Temp Dewpoint Dewpoint Depression Visibility Wind Speed Wind Dir Waves Ship Positions

Love Boat

Last reported at 2016-Apr-30 11:33 UTC. Time now 2016-May-04 06:02 UTC.
Position N 50°54' E 007°01'.

Length 110 m.

Type: Ship. MMSI: 205386190.

Date/timePositionNaut miles runAvg speedWind from/ knotsBaromVisibWave heightAir tempDewpointWater temp
2016-Apr-30 11:33N 50°54' E 007°01'4 3.9
2016-Apr-30 10:31N 50°57' E 006°59'13 3.3
2016-Apr-30 06:33N 51°09' E 006°49'3 3.0
2016-Apr-30 05:33N 51°11' E 006°46'3 2.6
2016-Apr-30 04:33N 51°13' E 006°45'3 2.7
2016-Apr-30 03:28N 51°16' E 006°42'4 3.9
2016-Apr-30 02:24N 51°20' E 006°43'2 2.1
2016-Apr-30 01:33N 51°21' E 006°40'0 0.0
2016-Apr-30 00:33N 51°21' E 006°40'0 0.0
2016-Apr-29 23:32N 51°21' E 006°40'0 0.0
2016-Apr-29 22:33N 51°21' E 006°40'1 0.9
2016-Apr-29 21:28N 51°22' E 006°39'5 4.0
2016-Apr-29 20:19N 51°25' E 006°44'4 4.1
2016-Apr-29 19:26N 51°28' E 006°42'3 3.3
2016-Apr-29 18:30N 51°31' E 006°42'4 4.0
2016-Apr-29 17:33N 51°35' E 006°39'4 3.8
2016-Apr-29 16:33N 51°37' E 006°35'4 3.6
2016-Apr-29 15:27N 51°40' E 006°30'55 4.9
2016-Apr-29 04:15N 51°49' E 005°02'5 7.0
2016-Apr-29 03:33N 51°49' E 004°54'8 7.0
2016-Apr-29 02:29N 51°49' E 004°42'6 6.3
2016-Apr-29 01:33N 51°50' E 004°33'7 6.8
2016-Apr-29 00:33N 51°51' E 004°22'6 5.7
2016-Apr-28 23:33N 51°54' E 004°14'3 3.1
2016-Apr-28 22:33N 51°56' E 004°11'0 0.0
2016-Apr-28 21:33N 51°56' E 004°11'2 1.8
2016-Apr-28 20:33N 51°57' E 004°09'0 0.0
2016-Apr-28 19:33N 51°57' E 004°09'0 0.0
2016-Apr-28 18:33N 51°57' E 004°09'0 0.0
2016-Apr-28 17:33N 51°57' E 004°09'0 0.0
2016-Apr-28 16:33N 51°57' E 004°09'0 0.1
2016-Apr-28 15:33N 51°57' E 004°09'0 0.0
2016-Apr-28 14:33N 51°57' E 004°09'0 0.0
2016-Apr-28 13:33N 51°57' E 004°09'0 0.0
2016-Apr-28 12:33N 51°57' E 004°09'0 0.0
2016-Apr-28 11:33N 51°57' E 004°09'1 0.8
2016-Apr-28 10:33N 51°58' E 004°08'5 4.6
2016-Apr-28 09:33N 51°54' E 004°12'7 7.2
2016-Apr-28 08:33N 51°51' E 004°22'13 6.3
2016-Apr-28 06:33N 51°43' E 004°39'7 7.1
2016-Apr-28 05:33N 51°43' E 004°50'0 0.0
2016-Apr-28 04:33N 51°43' E 004°50'0 0.0
2016-Apr-28 03:33N 51°43' E 004°50'0 0.0
2016-Apr-28 02:33N 51°43' E 004°50'0 0.0
2016-Apr-28 01:33N 51°43' E 004°50'0 0.0
2016-Apr-28 00:33N 51°43' E 004°50'0 0.0
2016-Apr-27 23:33N 51°43' E 004°50'0 0.0
2016-Apr-27 22:33N 51°43' E 004°50'0 0.0
2016-Apr-27 21:33N 51°43' E 004°50'0 0.0
2016-Apr-27 20:33N 51°43' E 004°50'0 0.0
2016-Apr-27 19:33N 51°43' E 004°50'  
2016-Apr-23 16:26N 51°40' E 006°29'6 7.0
2016-Apr-23 15:31N 51°35' E 006°36'7 6.9
2016-Apr-23 14:33N 51°31' E 006°43'8 7.2
2016-Apr-23 13:25N 51°23' E 006°43'8 6.3
2016-Apr-23 12:12N 51°15' E 006°45'4 6.2
2016-Apr-23 11:33N 51°11' E 006°44'16 6.9
2016-Apr-23 09:12N 50°58' E 006°60'5 7.1
2016-Apr-23 08:31N 50°54' E 007°02'7 6.9
2016-Apr-23 07:27N 50°46' E 007°04'  

Dump ship's entire track history